Slater, CO (81653)

3:38 AM MDT on October 25, 2014 (GMT -0600)
Dixon AP, Dixon, WY | Change Station
CLOSE
Current Station
Airport
Location: Dixon AP, Dixon, WY,
Elevation: 6549 ft
Nearby Weather Stations

Elev 6549 ft 41.04 °N, 107.49 °W | Updated 23 minutes ago

Clear
Clear
33 °F
Feels Like 30 °F
N
4
Wind Variable Wind from ESE

Today
High -- | Low -- °F
--% Chance of Precip.
Yesterday
High -- | Low -- °F
Precip. -- in
7:32 AM 6:14 PM
New Moon, 2% visible
Pressure 30.33 in
Visibility 10.0 miles
Clouds Clear
Windchill 30 °F
Dew Point 29 °F
Humidity 84%
Rainfall 0.00 in
Snow Depth Not available.
UV 0 out of 12
Pollen 3.50 out of 12
Air Quality Not available.
Flu Activity Sporadic
METAR KDWX 250915Z AUTO 12003KT 10SM CLR 01/M02 A3033 RMK AO2 T00051019

More Conditions Fewer Conditions

Pressure 30.33 in
Visibility 10.0 miles
Clouds Clear
Windchill 30 °F
Dew Point 29 °F
Humidity 84%
Rainfall 0.00 in
Snow Depth Not available.
UV 0 out of 12
Pollen 3.50 out of 12
Air Quality Not available.
Flu Activity Sporadic
METAR KDWX 250915Z AUTO 12003KT 10SM CLR 01/M02 A3033 RMK AO2 T00051019

More Conditions Fewer Conditions

10-Day Weather Forecast

Almanac

Astronomy

Oct. 25, 2014 Rise Set
Actual Time 7:32 AM MDT 6:14 PM MDT
Civil Twilight 7:04 AM MDT 6:42 PM MDT
Nautical Twilight 6:32 AM MDT 7:15 PM MDT
Astronomical Twilight 6:00 AM MDT 7:46 PM MDT
Moon 9:14 AM MDT 7:39 PM MDT
Length of Visible Light 11h 38m
Length of Day
10h 42m
Tomorrow will be 2m 30s shorter.
New Moon, 2% of the Moon is Illuminated
Today
New Moon
Oct 30
First Quarter
Nov 6
Full
Nov 14
Last Quarter
Nov 22
New

Today's Extremes

State Highs State Lows

Community

WunderPhotos

Upload Photos

1,764,796 photos uploaded!

Nearby

Snow Depth

Station Depth Elevation
Elk River 0 in 8700 ft
Lost Dog 0 in 9320 ft
Dry Lake 0 in 8400 ft
Zirkel 0 in 9340 ft
Rabbit Ears 0 in 9400 ft

Earthquake Activity

City Distance Mag. Time & Date
No recent earthquake activity has been reported nearby.
Minimum magnitude displayed is 2.5.

Coastal Water Temperatures

Place Temperature
No Stations Reporting

Nearby Weather Stations